LFLB 200500Z AUTO 20001KT CAVOK 08/06 Q1025 NOSIG

ElémentsDécodage
LFLB Station météo située sur l'aérodrome de CHAMBERY Aix-les-Bains
200500Z émis le 20 du mois à 05h00 UTC
AUTO Bulletin édité par un automate
20001KT vent du 200°, 01 noeuds
CAVOK Ceiling And Visibility OK
- Visibilité de 10 Km ou plus
- Pas de nuage au-dessous de 1500m ou au-dessous de l'altitude minimale du secteur la plus élevée (si>1500m) et absence de CB
- pas de temps présent significatif
08/06 température 08°C, point de rosée 06°C
 soit une humidité relative de 87%
Q1025 la pression au niveau de la mer (QNH) est de 1025 hPa
NOSIG Pas de changement significatif prévu au cours des deux heures suivant l'heure de l'observation